sensor_id;sensor_type;location;lat;lon;timestamp;P1;durP1;ratioP1;P2;durP2;ratioP2
30062;SDS011;16889;67.864;24.990;2022-10-24T00:00:49;15.32;;;2.15;;
30062;SDS011;16889;67.864;24.990;2022-10-24T00:05:35;11.70;;;1.52;;
30062;SDS011;16889;67.864;24.990;2022-10-24T00:10:25;16.17;;;1.65;;
30062;SDS011;16889;67.864;24.990;2022-10-24T00:15:11;12.60;;;1.15;;
30062;SDS011;16889;67.864;24.990;2022-10-24T00:19:57;9.38;;;1.35;;
30062;SDS011;16889;67.864;24.990;2022-10-24T00:24:44;7.40;;;1.10;;
30062;SDS011;16889;67.864;24.990;2022-10-24T00:29:31;9.48;;;1.48;;
30062;SDS011;16889;67.864;24.990;2022-10-24T00:34:17;13.40;;;1.83;;
30062;SDS011;16889;67.864;24.990;2022-10-24T00:39:03;7.15;;;1.23;;
30062;SDS011;16889;67.864;24.990;2022-10-24T00:43:49;17.58;;;2.53;;
30062;SDS011;16889;67.864;24.990;2022-10-24T00:48:51;7.35;;;1.42;;
30062;SDS011;16889;67.864;24.990;2022-10-24T00:53:41;9.88;;;1.33;;
30062;SDS011;16889;67.864;24.990;2022-10-24T00:58:29;9.20;;;1.40;;
30062;SDS011;16889;67.864;24.990;2022-10-24T01:03:18;8.13;;;1.48;;
30062;SDS011;16889;67.864;24.990;2022-10-24T01:28:41;11.63;;;1.50;;
30062;SDS011;16889;67.864;24.990;2022-10-24T01:33:35;6.85;;;1.00;;
30062;SDS011;16889;67.864;24.990;2022-10-24T01:44:02;15.90;;;1.70;;
30062;SDS011;16889;67.864;24.990;2022-10-24T01:49:16;11.05;;;1.45;;
30062;SDS011;16889;67.864;24.990;2022-10-24T01:54:05;10.25;;;1.10;;
30062;SDS011;16889;67.864;24.990;2022-10-24T01:59:02;5.63;;;0.82;;
30062;SDS011;16889;67.864;24.990;2022-10-24T02:03:53;4.97;;;1.10;;
30062;SDS011;16889;67.864;24.990;2022-10-24T02:08:42;10.02;;;1.27;;
30062;SDS011;16889;67.864;24.990;2022-10-24T02:13:35;10.93;;;1.20;;
30062;SDS011;16889;67.864;24.990;2022-10-24T02:18:25;10.27;;;1.45;;
30062;SDS011;16889;67.864;24.990;2022-10-24T02:23:18;12.77;;;1.17;;
30062;SDS011;16889;67.864;24.990;2022-10-24T02:28:11;10.30;;;1.42;;
30062;SDS011;16889;67.864;24.990;2022-10-24T02:33:02;12.43;;;1.17;;
30062;SDS011;16889;67.864;24.990;2022-10-24T02:37:49;8.85;;;1.08;;
30062;SDS011;16889;67.864;24.990;2022-10-24T02:42:38;10.45;;;1.15;;
30062;SDS011;16889;67.864;24.990;2022-10-24T02:47:26;7.53;;;1.10;;
30062;SDS011;16889;67.864;24.990;2022-10-24T02:52:13;12.23;;;1.23;;
30062;SDS011;16889;67.864;24.990;2022-10-24T02:57:00;10.40;;;1.60;;
30062;SDS011;16889;67.864;24.990;2022-10-24T03:01:47;8.30;;;1.27;;
30062;SDS011;16889;67.864;24.990;2022-10-24T03:06:33;13.90;;;1.17;;
30062;SDS011;16889;67.864;24.990;2022-10-24T03:11:20;12.48;;;1.45;;
30062;SDS011;16889;67.864;24.990;2022-10-24T03:16:06;13.55;;;1.40;;
30062;SDS011;16889;67.864;24.990;2022-10-24T03:20:52;14.48;;;1.55;;
30062;SDS011;16889;67.864;24.990;2022-10-24T03:25:37;10.55;;;1.27;;
30062;SDS011;16889;67.864;24.990;2022-10-24T03:30:23;14.50;;;1.33;;
30062;SDS011;16889;67.864;24.990;2022-10-24T03:35:10;8.10;;;1.15;;
30062;SDS011;16889;67.864;24.990;2022-10-24T03:39:56;7.55;;;1.10;;
30062;SDS011;16889;67.864;24.990;2022-10-24T03:44:42;7.80;;;1.02;;
30062;SDS011;16889;67.864;24.990;2022-10-24T03:49:28;7.55;;;1.42;;
30062;SDS011;16889;67.864;24.990;2022-10-24T03:54:16;7.25;;;0.88;;
30062;SDS011;16889;67.864;24.990;2022-10-24T03:59:02;6.50;;;1.15;;
30062;SDS011;16889;67.864;24.990;2022-10-24T04:03:48;10.65;;;1.35;;
30062;SDS011;16889;67.864;24.990;2022-10-24T04:08:34;16.33;;;1.67;;
30062;SDS011;16889;67.864;24.990;2022-10-24T04:13:20;7.32;;;1.20;;
30062;SDS011;16889;67.864;24.990;2022-10-24T04:18:06;10.48;;;1.48;;
30062;SDS011;16889;67.864;24.990;2022-10-24T04:22:52;7.22;;;1.02;;
30062;SDS011;16889;67.864;24.990;2022-10-24T04:27:38;7.22;;;1.05;;
30062;SDS011;16889;67.864;24.990;2022-10-24T04:32:24;8.98;;;1.15;;
30062;SDS011;16889;67.864;24.990;2022-10-24T04:37:10;5.78;;;1.08;;
30062;SDS011;16889;67.864;24.990;2022-10-24T04:41:56;14.18;;;1.10;;
30062;SDS011;16889;67.864;24.990;2022-10-24T04:46:43;10.52;;;1.30;;
30062;SDS011;16889;67.864;24.990;2022-10-24T04:51:28;7.53;;;0.82;;
30062;SDS011;16889;67.864;24.990;2022-10-24T04:56:15;7.72;;;0.82;;
30062;SDS011;16889;67.864;24.990;2022-10-24T05:01:01;9.63;;;1.38;;
30062;SDS011;16889;67.864;24.990;2022-10-24T05:05:47;6.07;;;0.90;;
30062;SDS011;16889;67.864;24.990;2022-10-24T05:10:33;8.73;;;1.00;;
30062;SDS011;16889;67.864;24.990;2022-10-24T05:15:19;12.35;;;1.23;;
30062;SDS011;16889;67.864;24.990;2022-10-24T05:20:06;5.35;;;1.23;;
30062;SDS011;16889;67.864;24.990;2022-10-24T05:24:52;8.10;;;1.10;;
30062;SDS011;16889;67.864;24.990;2022-10-24T05:29:38;6.07;;;1.02;;
30062;SDS011;16889;67.864;24.990;2022-10-24T05:34:25;5.82;;;2.70;;
30062;SDS011;16889;67.864;24.990;2022-10-24T05:39:11;12.70;;;5.53;;
30062;SDS011;16889;67.864;24.990;2022-10-24T05:43:57;12.70;;;5.75;;
30062;SDS011;16889;67.864;24.990;2022-10-24T05:48:43;11.80;;;1.85;;
30062;SDS011;16889;67.864;24.990;2022-10-24T05:53:29;10.70;;;2.33;;
30062;SDS011;16889;67.864;24.990;2022-10-24T05:58:16;14.88;;;2.50;;
30062;SDS011;16889;67.864;24.990;2022-10-24T06:03:06;9.38;;;2.20;;
30062;SDS011;16889;67.864;24.990;2022-10-24T06:07:53;10.33;;;1.30;;
30062;SDS011;16889;67.864;24.990;2022-10-24T06:12:39;20.58;;;11.63;;
30062;SDS011;16889;67.864;24.990;2022-10-24T06:17:25;23.45;;;11.93;;
30062;SDS011;16889;67.864;24.990;2022-10-24T06:22:11;9.68;;;1.52;;
30062;SDS011;16889;67.864;24.990;2022-10-24T06:26:57;14.13;;;5.82;;
30062;SDS011;16889;67.864;24.990;2022-10-24T06:31:43;21.42;;;6.93;;
30062;SDS011;16889;67.864;24.990;2022-10-24T06:36:29;16.15;;;8.57;;
30062;SDS011;16889;67.864;24.990;2022-10-24T06:41:15;8.13;;;1.60;;
30062;SDS011;16889;67.864;24.990;2022-10-24T06:46:05;2.90;;;0.85;;
30062;SDS011;16889;67.864;24.990;2022-10-24T06:50:52;5.05;;;1.08;;
30062;SDS011;16889;67.864;24.990;2022-10-24T06:55:38;4.57;;;1.17;;
30062;SDS011;16889;67.864;24.990;2022-10-24T07:00:24;8.18;;;1.33;;
30062;SDS011;16889;67.864;24.990;2022-10-24T07:05:11;4.63;;;1.10;;
30062;SDS011;16889;67.864;24.990;2022-10-24T07:09:58;5.72;;;2.20;;
30062;SDS011;16889;67.864;24.990;2022-10-24T07:14:44;14.45;;;2.30;;
30062;SDS011;16889;67.864;24.990;2022-10-24T07:19:30;10.40;;;3.42;;
30062;SDS011;16889;67.864;24.990;2022-10-24T07:24:16;15.00;;;5.15;;
30062;SDS011;16889;67.864;24.990;2022-10-24T07:29:02;15.30;;;4.65;;
30062;SDS011;16889;67.864;24.990;2022-10-24T07:33:48;15.60;;;3.58;;
30062;SDS011;16889;67.864;24.990;2022-10-24T07:38:35;8.35;;;2.30;;
30062;SDS011;16889;67.864;24.990;2022-10-24T07:43:21;6.65;;;1.50;;
30062;SDS011;16889;67.864;24.990;2022-10-24T07:48:07;9.57;;;1.75;;
30062;SDS011;16889;67.864;24.990;2022-10-24T07:52:53;7.32;;;1.25;;
30062;SDS011;16889;67.864;24.990;2022-10-24T07:57:39;8.23;;;1.60;;
30062;SDS011;16889;67.864;24.990;2022-10-24T08:02:25;5.85;;;1.45;;
30062;SDS011;16889;67.864;24.990;2022-10-24T08:07:11;6.53;;;1.77;;
30062;SDS011;16889;67.864;24.990;2022-10-24T08:11:57;3.17;;;1.58;;
30062;SDS011;16889;67.864;24.990;2022-10-24T08:16:43;4.45;;;1.15;;
30062;SDS011;16889;67.864;24.990;2022-10-24T08:21:29;6.50;;;1.38;;
30062;SDS011;16889;67.864;24.990;2022-10-24T08:26:17;3.67;;;1.20;;
30062;SDS011;16889;67.864;24.990;2022-10-24T08:31:05;3.38;;;1.08;;
30062;SDS011;16889;67.864;24.990;2022-10-24T08:35:53;3.90;;;1.10;;
30062;SDS011;16889;67.864;24.990;2022-10-24T08:40:44;12.07;;;1.45;;
30062;SDS011;16889;67.864;24.990;2022-10-24T08:45:45;3.83;;;1.17;;
30062;SDS011;16889;67.864;24.990;2022-10-24T08:50:43;6.35;;;0.90;;
30062;SDS011;16889;67.864;24.990;2022-10-24T09:00:39;6.88;;;0.80;;
30062;SDS011;16889;67.864;24.990;2022-10-24T09:05:28;6.82;;;0.82;;
30062;SDS011;16889;67.864;24.990;2022-10-24T09:11:03;3.03;;;1.15;;
30062;SDS011;16889;67.864;24.990;2022-10-24T09:15:39;7.10;;;1.48;;
30062;SDS011;16889;67.864;24.990;2022-10-24T09:20:28;4.57;;;1.20;;
30062;SDS011;16889;67.864;24.990;2022-10-24T09:25:19;4.72;;;1.40;;
30062;SDS011;16889;67.864;24.990;2022-10-24T09:30:13;3.00;;;0.77;;
30062;SDS011;16889;67.864;24.990;2022-10-24T09:35:03;3.03;;;1.15;;
30062;SDS011;16889;67.864;24.990;2022-10-24T09:40:42;5.97;;;0.80;;
30062;SDS011;16889;67.864;24.990;2022-10-24T09:50:27;2.45;;;0.77;;
30062;SDS011;16889;67.864;24.990;2022-10-24T09:55:21;5.03;;;0.93;;
30062;SDS011;16889;67.864;24.990;2022-10-24T10:00:18;7.47;;;1.05;;
30062;SDS011;16889;67.864;24.990;2022-10-24T10:05:14;11.90;;;1.20;;
30062;SDS011;16889;67.864;24.990;2022-10-24T10:15:17;3.58;;;0.90;;
30062;SDS011;16889;67.864;24.990;2022-10-24T10:20:21;1.65;;;0.65;;
30062;SDS011;16889;67.864;24.990;2022-10-24T10:25:27;7.03;;;0.80;;
30062;SDS011;16889;67.864;24.990;2022-10-24T10:30:16;8.30;;;0.93;;
30062;SDS011;16889;67.864;24.990;2022-10-24T10:35:16;8.27;;;1.00;;
30062;SDS011;16889;67.864;24.990;2022-10-24T10:40:31;1.73;;;0.65;;
30062;SDS011;16889;67.864;24.990;2022-10-24T10:56:53;4.20;;;0.77;;
30062;SDS011;16889;67.864;24.990;2022-10-24T11:06:41;3.70;;;0.70;;
30062;SDS011;16889;67.864;24.990;2022-10-24T11:11:46;2.55;;;0.70;;
30062;SDS011;16889;67.864;24.990;2022-10-24T11:16:38;2.20;;;0.70;;
30062;SDS011;16889;67.864;24.990;2022-10-24T11:21:25;8.10;;;0.97;;
30062;SDS011;16889;67.864;24.990;2022-10-24T11:26:21;6.88;;;0.70;;
30062;SDS011;16889;67.864;24.990;2022-10-24T11:31:24;1.73;;;0.73;;
30062;SDS011;16889;67.864;24.990;2022-10-24T11:41:42;4.28;;;0.80;;
30062;SDS011;16889;67.864;24.990;2022-10-24T11:46:40;10.85;;;0.90;;
30062;SDS011;16889;67.864;24.990;2022-10-24T11:51:33;4.28;;;0.75;;
30062;SDS011;16889;67.864;24.990;2022-10-24T11:56:30;4.15;;;0.70;;
30062;SDS011;16889;67.864;24.990;2022-10-24T12:01:31;3.78;;;0.93;;
30062;SDS011;16889;67.864;24.990;2022-10-24T12:06:42;7.63;;;1.00;;
30062;SDS011;16889;67.864;24.990;2022-10-24T12:21:23;3.50;;;0.90;;
30062;SDS011;16889;67.864;24.990;2022-10-24T12:31:08;1.73;;;0.60;;
30062;SDS011;16889;67.864;24.990;2022-10-24T12:36:02;5.80;;;0.88;;
30062;SDS011;16889;67.864;24.990;2022-10-24T12:40:53;3.13;;;0.60;;
30062;SDS011;16889;67.864;24.990;2022-10-24T12:45:39;3.80;;;0.70;;
30062;SDS011;16889;67.864;24.990;2022-10-24T13:00:22;3.88;;;0.82;;
30062;SDS011;16889;67.864;24.990;2022-10-24T13:15:55;4.95;;;0.70;;
30062;SDS011;16889;67.864;24.990;2022-10-24T13:20:43;4.35;;;0.68;;
30062;SDS011;16889;67.864;24.990;2022-10-24T13:25:34;2.95;;;1.10;;
30062;SDS011;16889;67.864;24.990;2022-10-24T13:30:23;3.40;;;0.77;;
30062;SDS011;16889;67.864;24.990;2022-10-24T13:35:22;7.50;;;1.55;;
30062;SDS011;16889;67.864;24.990;2022-10-24T13:40:13;4.60;;;1.10;;
30062;SDS011;16889;67.864;24.990;2022-10-24T13:56:07;4.22;;;1.20;;
30062;SDS011;16889;67.864;24.990;2022-10-24T14:05:50;3.33;;;0.75;;
30062;SDS011;16889;67.864;24.990;2022-10-24T14:11:04;2.88;;;0.70;;
30062;SDS011;16889;67.864;24.990;2022-10-24T14:15:53;5.80;;;0.75;;
30062;SDS011;16889;67.864;24.990;2022-10-24T14:20:41;5.15;;;0.90;;
30062;SDS011;16889;67.864;24.990;2022-10-24T14:25:35;26.27;;;1.75;;
30062;SDS011;16889;67.864;24.990;2022-10-24T14:30:23;4.88;;;0.82;;
30062;SDS011;16889;67.864;24.990;2022-10-24T14:35:11;5.40;;;0.65;;
30062;SDS011;16889;67.864;24.990;2022-10-24T14:39:58;3.22;;;0.70;;
30062;SDS011;16889;67.864;24.990;2022-10-24T14:44:45;6.68;;;0.60;;
30062;SDS011;16889;67.864;24.990;2022-10-24T14:49:34;5.53;;;0.77;;
30062;SDS011;16889;67.864;24.990;2022-10-24T14:54:22;2.58;;;0.98;;
30062;SDS011;16889;67.864;24.990;2022-10-24T14:59:21;7.38;;;0.73;;
30062;SDS011;16889;67.864;24.990;2022-10-24T15:04:25;3.90;;;0.80;;
30062;SDS011;16889;67.864;24.990;2022-10-24T15:09:20;4.13;;;0.87;;
30062;SDS011;16889;67.864;24.990;2022-10-24T15:19:22;3.45;;;0.65;;
30062;SDS011;16889;67.864;24.990;2022-10-24T15:24:15;2.95;;;0.50;;
30062;SDS011;16889;67.864;24.990;2022-10-24T15:33:58;4.70;;;0.77;;
30062;SDS011;16889;67.864;24.990;2022-10-24T15:38:45;3.88;;;0.85;;
30062;SDS011;16889;67.864;24.990;2022-10-24T15:43:32;2.50;;;0.75;;
30062;SDS011;16889;67.864;24.990;2022-10-24T15:48:18;5.03;;;0.90;;
30062;SDS011;16889;67.864;24.990;2022-10-24T15:53:04;3.45;;;0.70;;
30062;SDS011;16889;67.864;24.990;2022-10-24T15:57:51;5.15;;;0.52;;
30062;SDS011;16889;67.864;24.990;2022-10-24T16:02:37;3.05;;;0.80;;
30062;SDS011;16889;67.864;24.990;2022-10-24T16:07:25;3.03;;;0.70;;
30062;SDS011;16889;67.864;24.990;2022-10-24T16:12:11;11.60;;;1.38;;
30062;SDS011;16889;67.864;24.990;2022-10-24T16:16:57;6.40;;;1.02;;
30062;SDS011;16889;67.864;24.990;2022-10-24T16:21:43;7.87;;;1.27;;
30062;SDS011;16889;67.864;24.990;2022-10-24T16:26:29;6.50;;;1.30;;
30062;SDS011;16889;67.864;24.990;2022-10-24T16:31:15;11.18;;;1.30;;
30062;SDS011;16889;67.864;24.990;2022-10-24T16:36:02;8.18;;;1.30;;
30062;SDS011;16889;67.864;24.990;2022-10-24T16:40:49;8.32;;;1.10;;
30062;SDS011;16889;67.864;24.990;2022-10-24T16:45:35;15.27;;;1.83;;
30062;SDS011;16889;67.864;24.990;2022-10-24T16:50:22;7.50;;;1.63;;
30062;SDS011;16889;67.864;24.990;2022-10-24T16:55:11;6.55;;;1.00;;
30062;SDS011;16889;67.864;24.990;2022-10-24T17:04:43;4.68;;;1.02;;
30062;SDS011;16889;67.864;24.990;2022-10-24T17:09:29;6.25;;;1.17;;
30062;SDS011;16889;67.864;24.990;2022-10-24T17:14:15;4.47;;;0.82;;
30062;SDS011;16889;67.864;24.990;2022-10-24T17:19:01;3.67;;;1.00;;
30062;SDS011;16889;67.864;24.990;2022-10-24T17:23:47;4.03;;;0.90;;
30062;SDS011;16889;67.864;24.990;2022-10-24T17:28:33;5.00;;;1.00;;
30062;SDS011;16889;67.864;24.990;2022-10-24T17:33:19;6.10;;;1.00;;
30062;SDS011;16889;67.864;24.990;2022-10-24T17:43:25;4.32;;;0.90;;
30062;SDS011;16889;67.864;24.990;2022-10-24T17:48:12;2.97;;;0.70;;
30062;SDS011;16889;67.864;24.990;2022-10-24T17:52:58;6.10;;;0.90;;
30062;SDS011;16889;67.864;24.990;2022-10-24T17:57:44;4.28;;;0.60;;
30062;SDS011;16889;67.864;24.990;2022-10-24T18:02:30;5.32;;;0.98;;
30062;SDS011;16889;67.864;24.990;2022-10-24T18:07:17;5.03;;;0.80;;
30062;SDS011;16889;67.864;24.990;2022-10-24T18:12:03;3.22;;;0.70;;
30062;SDS011;16889;67.864;24.990;2022-10-24T18:16:49;10.20;;;0.82;;
30062;SDS011;16889;67.864;24.990;2022-10-24T18:21:35;4.65;;;0.85;;
30062;SDS011;16889;67.864;24.990;2022-10-24T18:26:22;1.55;;;0.77;;
30062;SDS011;16889;67.864;24.990;2022-10-24T18:31:11;5.80;;;1.10;;
30062;SDS011;16889;67.864;24.990;2022-10-24T18:40:53;5.78;;;0.73;;
30062;SDS011;16889;67.864;24.990;2022-10-24T18:45:39;6.60;;;0.80;;
30062;SDS011;16889;67.864;24.990;2022-10-24T18:50:25;8.15;;;0.90;;
30062;SDS011;16889;67.864;24.990;2022-10-24T18:55:25;5.70;;;0.68;;
30062;SDS011;16889;67.864;24.990;2022-10-24T19:00:15;5.75;;;0.60;;
30062;SDS011;16889;67.864;24.990;2022-10-24T19:09:55;2.35;;;0.60;;
30062;SDS011;16889;67.864;24.990;2022-10-24T19:14:41;7.95;;;0.77;;
30062;SDS011;16889;67.864;24.990;2022-10-24T19:19:29;2.38;;;0.75;;
30062;SDS011;16889;67.864;24.990;2022-10-24T19:24:20;6.00;;;0.70;;
30062;SDS011;16889;67.864;24.990;2022-10-24T19:29:06;6.90;;;0.80;;
30062;SDS011;16889;67.864;24.990;2022-10-24T19:33:52;4.82;;;0.88;;
30062;SDS011;16889;67.864;24.990;2022-10-24T19:38:38;4.88;;;1.00;;
30062;SDS011;16889;67.864;24.990;2022-10-24T19:43:27;2.83;;;0.90;;
30062;SDS011;16889;67.864;24.990;2022-10-24T19:48:14;1.13;;;0.65;;
30062;SDS011;16889;67.864;24.990;2022-10-24T19:53:00;3.33;;;0.75;;
30062;SDS011;16889;67.864;24.990;2022-10-24T19:57:46;4.75;;;0.77;;
30062;SDS011;16889;67.864;24.990;2022-10-24T20:02:32;3.25;;;1.10;;
30062;SDS011;16889;67.864;24.990;2022-10-24T20:07:18;3.35;;;0.73;;
30062;SDS011;16889;67.864;24.990;2022-10-24T20:12:04;9.15;;;0.90;;
30062;SDS011;16889;67.864;24.990;2022-10-24T20:16:51;3.67;;;0.90;;
30062;SDS011;16889;67.864;24.990;2022-10-24T20:21:37;4.75;;;0.80;;
30062;SDS011;16889;67.864;24.990;2022-10-24T20:26:24;7.43;;;1.40;;
30062;SDS011;16889;67.864;24.990;2022-10-24T20:31:44;3.38;;;0.77;;
30062;SDS011;16889;67.864;24.990;2022-10-24T20:36:23;9.02;;;1.13;;
30062;SDS011;16889;67.864;24.990;2022-10-24T20:41:09;1.75;;;0.70;;
30062;SDS011;16889;67.864;24.990;2022-10-24T20:45:55;8.40;;;1.45;;
30062;SDS011;16889;67.864;24.990;2022-10-24T20:50:42;6.57;;;1.50;;
30062;SDS011;16889;67.864;24.990;2022-10-24T20:55:28;4.60;;;1.30;;
30062;SDS011;16889;67.864;24.990;2022-10-24T21:00:14;4.78;;;1.20;;
30062;SDS011;16889;67.864;24.990;2022-10-24T21:05:00;5.55;;;1.05;;
30062;SDS011;16889;67.864;24.990;2022-10-24T21:09:49;4.50;;;0.77;;
30062;SDS011;16889;67.864;24.990;2022-10-24T21:14:35;2.15;;;0.85;;
30062;SDS011;16889;67.864;24.990;2022-10-24T21:19:21;2.40;;;0.70;;
30062;SDS011;16889;67.864;24.990;2022-10-24T21:24:11;4.78;;;1.33;;
30062;SDS011;16889;67.864;24.990;2022-10-24T21:28:59;1.42;;;0.85;;
30062;SDS011;16889;67.864;24.990;2022-10-24T21:33:45;4.28;;;0.98;;
30062;SDS011;16889;67.864;24.990;2022-10-24T21:38:31;8.55;;;1.00;;
30062;SDS011;16889;67.864;24.990;2022-10-24T21:43:17;6.68;;;1.33;;
30062;SDS011;16889;67.864;24.990;2022-10-24T21:48:03;5.35;;;1.33;;
30062;SDS011;16889;67.864;24.990;2022-10-24T21:52:49;5.57;;;0.90;;
30062;SDS011;16889;67.864;24.990;2022-10-24T21:57:35;5.03;;;0.90;;
30062;SDS011;16889;67.864;24.990;2022-10-24T22:02:21;3.67;;;0.80;;
30062;SDS011;16889;67.864;24.990;2022-10-24T22:07:07;7.78;;;0.70;;
30062;SDS011;16889;67.864;24.990;2022-10-24T22:11:53;6.95;;;0.80;;
30062;SDS011;16889;67.864;24.990;2022-10-24T22:16:42;2.78;;;0.80;;
30062;SDS011;16889;67.864;24.990;2022-10-24T22:21:29;9.45;;;1.00;;
30062;SDS011;16889;67.864;24.990;2022-10-24T22:26:16;5.00;;;0.90;;
30062;SDS011;16889;67.864;24.990;2022-10-24T22:31:02;4.28;;;0.90;;
30062;SDS011;16889;67.864;24.990;2022-10-24T22:35:51;6.95;;;0.93;;
30062;SDS011;16889;67.864;24.990;2022-10-24T22:40:42;3.72;;;0.95;;
30062;SDS011;16889;67.864;24.990;2022-10-24T22:45:30;4.97;;;0.82;;
30062;SDS011;16889;67.864;24.990;2022-10-24T22:50:25;8.77;;;0.90;;
30062;SDS011;16889;67.864;24.990;2022-10-24T22:55:35;10.85;;;1.00;;
30062;SDS011;16889;67.864;24.990;2022-10-24T23:00:28;3.78;;;0.80;;
30062;SDS011;16889;67.864;24.990;2022-10-24T23:10:28;4.25;;;0.90;;
30062;SDS011;16889;67.864;24.990;2022-10-24T23:15:16;5.18;;;0.80;;
30062;SDS011;16889;67.864;24.990;2022-10-24T23:20:05;2.80;;;0.80;;
30062;SDS011;16889;67.864;24.990;2022-10-24T23:25:18;3.40;;;1.05;;
30062;SDS011;16889;67.864;24.990;2022-10-24T23:30:15;2.43;;;0.70;;
30062;SDS011;16889;67.864;24.990;2022-10-24T23:35:03;7.43;;;1.20;;
30062;SDS011;16889;67.864;24.990;2022-10-24T23:39:50;4.00;;;0.80;;
30062;SDS011;16889;67.864;24.990;2022-10-24T23:44:36;3.30;;;0.73;;
30062;SDS011;16889;67.864;24.990;2022-10-24T23:49:28;2.15;;;0.80;;
30062;SDS011;16889;67.864;24.990;2022-10-24T23:54:24;5.95;;;0.90;;
30062;SDS011;16889;67.864;24.990;2022-10-24T23:59:13;6.00;;;1.10;;
